createdAt,value
2018-02-18T00:01:01.742Z,102254.25
2018-02-18T00:03:30.058Z,102249.58
2018-02-18T00:05:58.014Z,102250.23
2018-02-18T00:08:26.140Z,102248.55
2018-02-18T00:10:54.343Z,102252.85
2018-02-18T00:13:22.455Z,102263.05
2018-02-18T00:15:50.558Z,102263.35
2018-02-18T00:18:18.810Z,102272.13
2018-02-18T00:20:46.938Z,102263.06
2018-02-18T00:23:15.063Z,102267.91
2018-02-18T00:25:43.175Z,102252.61
2018-02-18T00:28:11.331Z,102259.52
2018-02-18T00:30:39.460Z,102263.25
2018-02-18T00:33:07.576Z,102265.31
2018-02-18T00:35:35.773Z,102265.08
2018-02-18T00:38:03.948Z,102271.95
2018-02-18T00:40:32.048Z,102265.77
2018-02-18T00:43:00.176Z,102272.61
2018-02-18T00:45:28.301Z,102272.08
2018-02-18T00:47:56.480Z,102279.39
2018-02-18T00:50:24.600Z,102278.08
2018-02-18T00:52:52.720Z,102280.16
2018-02-18T00:55:20.829Z,102282.05
2018-02-18T00:57:48.954Z,102284.68
2018-02-18T01:00:17.214Z,102291.25
2018-02-18T01:02:45.330Z,102296.35
2018-02-18T01:05:13.457Z,102290.92
2018-02-18T01:07:41.569Z,102297.34
2018-02-18T01:10:09.701Z,102298.23
2018-02-18T01:12:37.828Z,102297.53
2018-02-18T01:15:05.945Z,102297.21
2018-02-18T01:17:34.081Z,102297.83
2018-02-18T01:20:02.187Z,102296.80
2018-02-18T01:22:30.299Z,102295.71
2018-02-18T01:24:58.491Z,102307.20
2018-02-18T01:27:26.615Z,102298.86
2018-02-18T01:29:54.734Z,102304.50
2018-02-18T01:32:22.858Z,102302.33
2018-02-18T01:34:50.982Z,102311.30
2018-02-18T01:37:19.101Z,102307.13
2018-02-18T01:39:47.230Z,102306.17
2018-02-18T01:42:15.345Z,102300.59
2018-02-18T01:44:43.469Z,102295.58
2018-02-18T01:47:11.594Z,102307.73
2018-02-18T01:49:39.718Z,102307.20
2018-02-18T01:52:08.153Z,102310.16
2018-02-18T01:54:36.255Z,102308.88
2018-02-18T01:57:04.393Z,102309.97
2018-02-18T01:59:32.494Z,102312.03
2018-02-18T02:02:00.623Z,102299.98
2018-02-18T02:04:28.738Z,102302.09
2018-02-18T02:06:56.843Z,102302.94
2018-02-18T02:09:24.965Z,102304.09
2018-02-18T02:11:53.071Z,102303.43
2018-02-18T02:14:21.185Z,102298.97
2018-02-18T02:16:49.307Z,102297.35
2018-02-18T02:19:20.790Z,102299.75
2018-02-18T02:21:48.897Z,102302.80
2018-02-18T02:24:17.017Z,102308.66
2018-02-18T02:26:45.147Z,102302.47
2018-02-18T02:29:13.252Z,102300.83
2018-02-18T02:31:41.391Z,102295.16
2018-02-18T02:34:09.494Z,102297.71
2018-02-18T02:36:37.641Z,102296.09
2018-02-18T02:39:05.751Z,102287.41
2018-02-18T02:41:33.884Z,102289.59
2018-02-18T02:44:01.995Z,102294.92
2018-02-18T02:46:30.110Z,102301.30
2018-02-18T02:48:58.233Z,102298.56
2018-02-18T02:51:26.343Z,102299.09
2018-02-18T02:53:54.478Z,102289.39
2018-02-18T02:56:22.588Z,102285.84
2018-02-18T02:58:50.721Z,102278.99
2018-02-18T03:01:18.819Z,102282.34
2018-02-18T03:03:46.929Z,102276.39
2018-02-18T03:06:15.039Z,102278.73
2018-02-18T03:08:43.149Z,102267.61
2018-02-18T03:11:11.264Z,102270.91
2018-02-18T03:13:39.405Z,102269.67
2018-02-18T03:16:07.525Z,102263.34
2018-02-18T03:18:35.654Z,102263.81
2018-02-18T03:21:03.772Z,102258.45
2018-02-18T03:23:31.909Z,102262.37
2018-02-18T03:26:00.042Z,102262.69
2018-02-18T03:28:28.167Z,102268.75
2018-02-18T03:30:56.299Z,102264.71
2018-02-18T03:33:24.580Z,102261.80
2018-02-18T03:35:52.696Z,102261.95
2018-02-18T03:38:20.811Z,102263.52
2018-02-18T03:40:49.057Z,102263.05
2018-02-18T03:43:17.175Z,102263.12
2018-02-18T03:45:45.294Z,102273.22
2018-02-18T03:48:13.418Z,102266.66
2018-02-18T03:50:41.544Z,102263.00
2018-02-18T03:53:09.642Z,102270.57
2018-02-18T03:55:37.785Z,102272.15
2018-02-18T03:58:05.896Z,102272.45
2018-02-18T04:00:34.011Z,102268.08
2018-02-18T04:03:02.128Z,102263.58
2018-02-18T04:05:30.260Z,102269.02
2018-02-18T04:07:58.344Z,102272.63
2018-02-18T04:10:26.470Z,102272.47
2018-02-18T04:12:54.576Z,102271.58
2018-02-18T04:15:22.680Z,102271.59
2018-02-18T04:17:50.806Z,102271.08
2018-02-18T04:20:19.005Z,102277.25
2018-02-18T04:22:47.120Z,102287.86
2018-02-18T04:25:15.228Z,102282.91
2018-02-18T04:27:43.342Z,102285.11
2018-02-18T04:30:11.477Z,102280.08
2018-02-18T04:32:39.588Z,102288.00
2018-02-18T04:35:07.712Z,102285.23
2018-02-18T04:37:35.843Z,102280.04
2018-02-18T04:40:03.951Z,102274.09
2018-02-18T04:42:32.078Z,102271.69
2018-02-18T04:45:00.182Z,102276.63
2018-02-18T04:47:28.299Z,102279.86
2018-02-18T04:49:56.426Z,102285.50
2018-02-18T04:52:24.538Z,102286.66
2018-02-18T04:54:52.674Z,102291.12
2018-02-18T04:57:20.798Z,102285.64
2018-02-18T04:59:49.800Z,102292.88
2018-02-18T05:02:17.922Z,102288.70
2018-02-18T05:04:46.053Z,102289.89
2018-02-18T05:07:14.179Z,102289.62
2018-02-18T05:09:42.313Z,102290.48
2018-02-18T05:12:10.415Z,102285.05
2018-02-18T05:14:38.565Z,102290.38
2018-02-18T05:17:06.689Z,102289.05
2018-02-18T05:19:34.792Z,102285.09
2018-02-18T05:22:02.899Z,102279.09
2018-02-18T05:24:31.029Z,102279.91
2018-02-18T05:26:59.133Z,102288.67
2018-02-18T05:29:27.261Z,102285.89
2018-02-18T05:31:55.383Z,102286.61
2018-02-18T05:34:23.509Z,102290.06
2018-02-18T05:36:51.621Z,102279.73
2018-02-18T05:39:19.759Z,102283.67
2018-02-18T05:41:47.874Z,102290.95
2018-02-18T05:44:16.024Z,102286.38
2018-02-18T05:46:44.139Z,102292.05
2018-02-18T05:49:12.259Z,102290.16
2018-02-18T05:51:40.377Z,102291.75
2018-02-18T05:54:08.513Z,102288.86
2018-02-18T05:56:36.617Z,102288.49
2018-02-18T05:59:04.733Z,102290.69
2018-02-18T06:01:32.860Z,102294.39
2018-02-18T06:04:00.980Z,102298.01
2018-02-18T06:06:29.114Z,102299.33
2018-02-18T06:08:57.249Z,102295.33
2018-02-18T06:11:25.369Z,102290.02
2018-02-18T06:13:53.502Z,102294.45
2018-02-18T06:16:21.616Z,102294.63
2018-02-18T06:18:49.739Z,102285.11
2018-02-18T06:21:17.873Z,102289.36
2018-02-18T06:23:46.015Z,102292.20
2018-02-18T06:26:14.347Z,102286.33
2018-02-18T06:28:42.448Z,102292.48
2018-02-18T06:31:10.576Z,102295.65
2018-02-18T06:33:38.697Z,102292.42
2018-02-18T06:36:06.817Z,102299.24
2018-02-18T06:38:34.936Z,102295.39
2018-02-18T06:41:03.380Z,102289.33
2018-02-18T06:43:31.489Z,102287.61
2018-02-18T06:46:03.260Z,102290.36
2018-02-18T06:48:31.386Z,102299.53
2018-02-18T06:50:59.504Z,102303.31
2018-02-18T06:53:27.641Z,102304.78
2018-02-18T06:55:55.765Z,102299.64
2018-02-18T06:58:24.149Z,102310.91
2018-02-18T07:00:52.264Z,102305.67
2018-02-18T07:03:21.292Z,102302.49
2018-02-18T07:05:49.474Z,102310.05
2018-02-18T07:08:17.587Z,102310.58
2018-02-18T07:10:45.726Z,102315.95
2018-02-18T07:13:13.840Z,102317.87
2018-02-18T07:15:41.947Z,102311.64
2018-02-18T07:18:10.086Z,102308.78
2018-02-18T07:20:38.202Z,102312.09
2018-02-18T07:23:06.320Z,102312.16
2018-02-18T07:25:34.435Z,102318.13
2018-02-18T07:28:02.696Z,102316.08
2018-02-18T07:30:30.858Z,102306.81
2018-02-18T07:32:58.966Z,102310.61
2018-02-18T07:35:27.095Z,102309.02
2018-02-18T07:37:55.226Z,102310.89
2018-02-18T07:40:23.327Z,102304.69
2018-02-18T07:42:51.461Z,102301.31
2018-02-18T07:45:19.579Z,102296.45
2018-02-18T07:47:47.693Z,102293.80
2018-02-18T07:50:15.803Z,102291.67
2018-02-18T07:52:43.924Z,102289.37
2018-02-18T07:55:12.090Z,102291.10
2018-02-18T07:57:40.185Z,102290.42
2018-02-18T08:00:08.276Z,102292.88
2018-02-18T08:02:36.391Z,102295.75
2018-02-18T08:05:04.530Z,102294.50
2018-02-18T08:07:32.640Z,102298.78
2018-02-18T08:10:00.779Z,102296.54
2018-02-18T08:12:28.899Z,102295.67
2018-02-18T08:14:57.025Z,102303.01
2018-02-18T08:17:25.168Z,102289.78
2018-02-18T08:19:53.298Z,102290.54
2018-02-18T08:22:21.422Z,102292.59
2018-02-18T08:24:49.540Z,102305.84
2018-02-18T08:27:17.645Z,102302.33
2018-02-18T08:29:45.756Z,102306.42
2018-02-18T08:32:13.893Z,102303.00
2018-02-18T08:34:42.016Z,102303.69
2018-02-18T08:37:10.129Z,102303.45
2018-02-18T08:39:38.243Z,102296.19
2018-02-18T08:42:06.461Z,102302.06
2018-02-18T08:44:34.510Z,102294.87
2018-02-18T08:47:02.708Z,102298.41
2018-02-18T08:49:30.850Z,102295.94
2018-02-18T08:51:59.091Z,102299.78
2018-02-18T08:54:27.199Z,102301.61
2018-02-18T08:56:55.330Z,102303.98
2018-02-18T08:59:23.463Z,102301.23
2018-02-18T09:01:51.579Z,102296.43
2018-02-18T09:04:19.718Z,102300.45
2018-02-18T09:06:47.834Z,102296.48
2018-02-18T09:09:15.963Z,102298.13
2018-02-18T09:11:44.103Z,102301.71
2018-02-18T09:14:12.218Z,102299.23
2018-02-18T09:16:40.341Z,102299.81
2018-02-18T09:19:08.439Z,102306.45
2018-02-18T09:21:36.570Z,102309.09
2018-02-18T09:24:04.694Z,102309.72
2018-02-18T09:26:32.816Z,102310.98
2018-02-18T09:29:01.254Z,102307.91
2018-02-18T09:31:29.443Z,102313.98
2018-02-18T09:33:57.546Z,102315.89
2018-02-18T09:36:25.718Z,102306.81
2018-02-18T09:38:53.806Z,102311.59
2018-02-18T09:41:21.913Z,102312.48
2018-02-18T09:43:50.027Z,102305.72
2018-02-18T09:46:18.178Z,102314.37
2018-02-18T09:48:46.304Z,102315.88
2018-02-18T09:51:14.434Z,102316.12
2018-02-18T09:53:42.558Z,102317.83
2018-02-18T09:56:10.697Z,102321.27
2018-02-18T09:58:38.838Z,102317.59
2018-02-18T10:01:06.951Z,102309.36
2018-02-18T10:03:35.085Z,102307.25
2018-02-18T10:06:03.197Z,102313.22
2018-02-18T10:08:31.364Z,102314.09
2018-02-18T10:10:59.631Z,102315.05
2018-02-18T10:13:27.820Z,102317.20
2018-02-18T10:15:55.941Z,102323.39
2018-02-18T10:18:24.604Z,102318.50
2018-02-18T10:20:52.730Z,102311.45
2018-02-18T10:23:20.877Z,102324.58
2018-02-18T10:25:48.993Z,102326.30
2018-02-18T10:28:17.354Z,102327.97
2018-02-18T10:30:45.472Z,102327.15
2018-02-18T10:33:13.599Z,102327.48
2018-02-18T10:35:41.738Z,102328.70
2018-02-18T10:38:09.843Z,102325.45
2018-02-18T10:40:37.978Z,102327.67
2018-02-18T10:43:06.089Z,102332.98
2018-02-18T10:45:34.218Z,102332.30
2018-02-18T10:48:02.359Z,102332.43
2018-02-18T10:50:30.478Z,102331.53
2018-02-18T10:52:58.611Z,102337.12
2018-02-18T10:55:29.888Z,102337.98
2018-02-18T10:57:58.010Z,102337.30
2018-02-18T11:00:29.805Z,102327.07
2018-02-18T11:02:57.927Z,102323.95
2018-02-18T11:05:30.823Z,102327.12
2018-02-18T11:08:00.280Z,102327.79
2018-02-18T11:10:29.225Z,102318.16
2018-02-18T11:12:57.344Z,102327.53
2018-02-18T11:15:25.488Z,102324.59
2018-02-18T11:17:53.599Z,102314.95
2018-02-18T11:20:21.729Z,102320.06
2018-02-18T11:22:49.867Z,102312.55
2018-02-18T11:25:17.992Z,102311.36
2018-02-18T11:27:46.127Z,102306.17
2018-02-18T11:30:14.250Z,102312.29
2018-02-18T11:32:42.363Z,102306.04
2018-02-18T11:35:10.482Z,102303.89
2018-02-18T11:37:38.602Z,102300.42
2018-02-18T11:40:06.714Z,102300.89
2018-02-18T11:42:34.888Z,102299.97
2018-02-18T11:45:03.005Z,102295.64
2018-02-18T11:47:31.127Z,102297.55
2018-02-18T11:49:59.255Z,102297.73
2018-02-18T11:52:27.392Z,102290.66
2018-02-18T11:54:55.756Z,102291.50
2018-02-18T11:57:23.906Z,102285.58
2018-02-18T11:59:52.024Z,102279.95
2018-02-18T12:02:20.220Z,102277.55
2018-02-18T12:04:48.557Z,102271.57
2018-02-18T12:07:17.140Z,102267.61
2018-02-18T12:09:45.286Z,102268.13
2018-02-18T12:12:13.476Z,102268.09
2018-02-18T12:14:41.613Z,102259.77
2018-02-18T12:17:09.736Z,102259.51
2018-02-18T12:19:37.861Z,102254.65
2018-02-18T12:22:05.967Z,102265.28
2018-02-18T12:24:34.085Z,102251.38
2018-02-18T12:27:02.216Z,102243.31
2018-02-18T12:29:30.328Z,102238.88
2018-02-18T12:31:58.462Z,102236.63
2018-02-18T12:34:26.606Z,102234.95
2018-02-18T12:36:54.716Z,102231.48
2018-02-18T12:39:22.866Z,102231.29
2018-02-18T12:41:50.977Z,102230.84
2018-02-18T12:44:19.116Z,102237.61
2018-02-18T12:46:47.220Z,102239.46
2018-02-18T12:49:15.356Z,102235.97
2018-02-18T12:51:43.491Z,102231.88
2018-02-18T12:54:11.600Z,102229.38
2018-02-18T12:56:39.721Z,102223.38
2018-02-18T12:59:07.851Z,102210.70
2018-02-18T13:01:35.988Z,102213.71
2018-02-18T13:04:04.156Z,102208.85
2018-02-18T13:06:32.271Z,102196.13
2018-02-18T13:09:00.371Z,102197.64
2018-02-18T13:11:28.500Z,102198.64
2018-02-18T13:13:56.633Z,102195.22
2018-02-18T13:16:24.752Z,102199.19
2018-02-18T13:18:52.892Z,102189.09
2018-02-18T13:21:21.153Z,102189.63
2018-02-18T13:23:49.257Z,102185.59
2018-02-18T13:26:17.399Z,102186.55
2018-02-18T13:28:45.527Z,102189.12
2018-02-18T13:31:13.679Z,102187.84
2018-02-18T13:33:42.197Z,102188.15
2018-02-18T13:36:10.338Z,102188.84
2018-02-18T13:38:38.448Z,102184.90
2018-02-18T13:41:06.594Z,102185.19
2018-02-18T13:43:34.704Z,102179.44
2018-02-18T13:46:02.844Z,102183.98
2018-02-18T13:48:32.938Z,102165.77
2018-02-18T13:51:01.580Z,102170.03
2018-02-18T13:53:31.366Z,102166.30
2018-02-18T13:56:00.487Z,102169.73
2018-02-18T13:58:29.085Z,102170.89
2018-02-18T14:00:57.226Z,102176.39
2018-02-18T14:03:25.345Z,102171.40
2018-02-18T14:05:53.470Z,102172.63
2018-02-18T14:08:21.716Z,102168.97
2018-02-18T14:10:49.844Z,102168.06
2018-02-18T14:13:18.098Z,102175.83
2018-02-18T14:15:46.208Z,102173.06
2018-02-18T14:18:14.367Z,102164.80
2018-02-18T14:20:42.503Z,102156.47
2018-02-18T14:23:10.624Z,102159.00
2018-02-18T14:25:39.240Z,102155.86
2018-02-18T14:28:07.744Z,102152.99
2018-02-18T14:30:35.871Z,102148.33
2018-02-18T14:33:04.011Z,102148.48
2018-02-18T14:35:32.131Z,102144.94
2018-02-18T14:38:00.233Z,102151.38
2018-02-18T14:40:28.384Z,102149.67
2018-02-18T14:43:08.262Z,102150.77
2018-02-18T14:45:49.056Z,102149.12
2018-02-18T14:48:28.723Z,102143.05
2018-02-18T14:51:08.367Z,102149.73
2018-02-18T14:53:48.232Z,102145.03
2018-02-18T14:56:28.136Z,102145.67
2018-02-18T14:58:56.274Z,102146.05
2018-02-18T15:01:24.400Z,102147.94
2018-02-18T15:03:52.508Z,102140.12
2018-02-18T15:06:20.631Z,102140.22
2018-02-18T15:08:48.756Z,102144.27
2018-02-18T15:11:16.861Z,102150.70
2018-02-18T15:13:45.000Z,102151.13
2018-02-18T15:16:13.294Z,102146.25
2018-02-18T15:18:41.426Z,102145.70
2018-02-18T15:21:09.544Z,102140.34
2018-02-18T15:23:37.663Z,102139.36
2018-02-18T15:26:05.787Z,102142.25
2018-02-18T15:28:33.933Z,102144.36
2018-02-18T15:31:02.083Z,102146.47
2018-02-18T15:33:30.208Z,102150.31
2018-02-18T15:35:58.356Z,102147.50
2018-02-18T15:38:26.498Z,102145.27
2018-02-18T15:40:54.627Z,102145.58
2018-02-18T15:43:22.764Z,102142.44
2018-02-18T15:45:50.873Z,102142.30
2018-02-18T15:48:19.926Z,102139.62
2018-02-18T15:50:48.053Z,102138.84
2018-02-18T15:53:16.247Z,102138.47
2018-02-18T15:55:44.370Z,102135.13
2018-02-18T15:58:12.505Z,102137.59
2018-02-18T16:00:40.628Z,102130.86
2018-02-18T16:03:08.760Z,102133.36
2018-02-18T16:05:36.877Z,102125.37
2018-02-18T16:08:04.989Z,102123.75
2018-02-18T16:10:33.118Z,102123.08
2018-02-18T16:13:01.256Z,102124.63
2018-02-18T16:15:29.563Z,102117.86
2018-02-18T16:17:58.075Z,102117.71
2018-02-18T16:20:26.336Z,102112.42
2018-02-18T16:22:54.760Z,102110.88
2018-02-18T16:25:23.017Z,102117.97
2018-02-18T16:27:51.134Z,102110.55
2018-02-18T16:30:19.245Z,102108.96
2018-02-18T16:32:47.362Z,102107.98
2018-02-18T16:35:15.499Z,102109.76
2018-02-18T16:37:43.610Z,102112.03
2018-02-18T16:40:11.732Z,102109.11
2018-02-18T16:42:39.868Z,102104.78
2018-02-18T16:45:07.998Z,102107.39
2018-02-18T16:47:36.176Z,102107.07
2018-02-18T16:50:04.370Z,102110.24
2018-02-18T16:52:32.480Z,102108.83
2018-02-18T16:55:00.631Z,102100.02
2018-02-18T16:57:28.769Z,102103.30
2018-02-18T16:59:56.893Z,102105.03
2018-02-18T17:02:25.023Z,102105.25
2018-02-18T17:04:53.137Z,102108.97
2018-02-18T17:07:21.253Z,102109.82
2018-02-18T17:09:49.508Z,102103.99
2018-02-18T17:12:17.620Z,102105.41
2018-02-18T17:14:45.741Z,102106.22
2018-02-18T17:17:13.860Z,102116.64
2018-02-18T17:19:41.984Z,102109.27
2018-02-18T17:22:10.156Z,102110.09
2018-02-18T17:24:38.285Z,102111.59
2018-02-18T17:27:06.419Z,102112.67
2018-02-18T17:29:34.550Z,102108.20
2018-02-18T17:32:02.698Z,102104.34
2018-02-18T17:34:30.852Z,102107.44
2018-02-18T17:37:02.104Z,102107.34
2018-02-18T17:39:30.424Z,102109.24
2018-02-18T17:41:58.845Z,102108.55
2018-02-18T17:44:27.269Z,102107.41
2018-02-18T17:46:55.512Z,102108.14
2018-02-18T17:49:23.618Z,102114.48
2018-02-18T17:51:51.738Z,102116.84
2018-02-18T17:54:19.855Z,102117.47
2018-02-18T17:56:47.974Z,102122.41
2018-02-18T17:59:16.114Z,102114.89
2018-02-18T18:01:44.235Z,102118.14
2018-02-18T18:04:12.368Z,102115.58
2018-02-18T18:06:40.524Z,102112.64
2018-02-18T18:09:08.676Z,102118.31
2018-02-18T18:11:36.880Z,102117.67
2018-02-18T18:14:04.992Z,102112.70
2018-02-18T18:16:33.118Z,102117.17
2018-02-18T18:19:01.252Z,102114.24
2018-02-18T18:21:29.389Z,102108.67
2018-02-18T18:23:57.518Z,102114.58
2018-02-18T18:26:25.658Z,102109.55
2018-02-18T18:28:53.874Z,102100.47
2018-02-18T18:31:22.002Z,102105.95
2018-02-18T18:33:50.127Z,102105.30
2018-02-18T18:36:18.370Z,102104.79
2018-02-18T18:38:46.508Z,102110.39
2018-02-18T18:41:14.623Z,102107.45
2018-02-18T18:43:42.750Z,102100.05
2018-02-18T18:46:10.879Z,102092.53
2018-02-18T18:48:39.003Z,102090.92
2018-02-18T18:51:07.116Z,102086.06
2018-02-18T18:53:35.484Z,102082.31
2018-02-18T18:56:03.618Z,102090.34
2018-02-18T18:58:31.736Z,102090.97
2018-02-18T19:00:59.873Z,102089.91
2018-02-18T19:03:27.993Z,102088.80
2018-02-18T19:05:56.108Z,102090.54
2018-02-18T19:08:24.514Z,102087.52
2018-02-18T19:10:52.632Z,102083.91
2018-02-18T19:13:20.771Z,102089.05
2018-02-18T19:15:48.903Z,102092.56
2018-02-18T19:18:17.106Z,102091.19
2018-02-18T19:20:45.206Z,102092.91
2018-02-18T19:23:13.316Z,102093.55
2018-02-18T19:25:41.437Z,102095.62
2018-02-18T19:28:12.830Z,102092.17
2018-02-18T19:30:41.045Z,102090.05
2018-02-18T19:33:09.166Z,102094.55
2018-02-18T19:35:37.299Z,102105.05
2018-02-18T19:38:05.413Z,102096.31
2018-02-18T19:40:33.538Z,102098.37
2018-02-18T19:43:01.676Z,102095.81
2018-02-18T19:45:29.787Z,102093.11
2018-02-18T19:47:57.903Z,102091.05
2018-02-18T19:50:26.034Z,102092.06
2018-02-18T19:52:54.178Z,102087.78
2018-02-18T19:55:22.289Z,102094.45
2018-02-18T19:57:50.461Z,102097.00
2018-02-18T20:00:18.573Z,102090.30
2018-02-18T20:02:46.698Z,102086.98
2018-02-18T20:05:14.827Z,102082.81
2018-02-18T20:07:43.047Z,102086.68
2018-02-18T20:10:11.335Z,102083.05
2018-02-18T20:12:39.455Z,102077.27
2018-02-18T20:15:07.559Z,102074.09
2018-02-18T20:17:35.681Z,102064.95
2018-02-18T20:20:03.963Z,102051.91
2018-02-18T20:22:32.098Z,102059.73
2018-02-18T20:25:03.701Z,102056.25
2018-02-18T20:27:31.841Z,102058.36
2018-02-18T20:29:59.965Z,102053.19
2018-02-18T20:32:28.172Z,102053.44
2018-02-18T20:34:56.316Z,102053.64
2018-02-18T20:37:24.504Z,102045.01
2018-02-18T20:39:52.738Z,102050.11
2018-02-18T20:42:20.879Z,102056.65
2018-02-18T20:44:49.025Z,102056.48
2018-02-18T20:47:17.171Z,102053.41
2018-02-18T20:49:45.328Z,102049.80
2018-02-18T20:52:13.443Z,102044.13
2018-02-18T20:54:41.718Z,102046.31
2018-02-18T20:57:09.825Z,102043.97
2018-02-18T20:59:37.965Z,102036.56
2018-02-18T21:02:06.119Z,102036.64
2018-02-18T21:04:34.228Z,102033.00
2018-02-18T21:07:02.369Z,102033.32
2018-02-18T21:09:30.503Z,102028.06
2018-02-18T21:11:58.618Z,102030.05
2018-02-18T21:14:26.765Z,102025.20
2018-02-18T21:16:54.918Z,102026.84
2018-02-18T21:19:23.031Z,102024.98
2018-02-18T21:21:51.144Z,102024.31
2018-02-18T21:24:19.276Z,102018.00
2018-02-18T21:26:47.410Z,102024.12
2018-02-18T21:29:15.521Z,102024.16
2018-02-18T21:31:43.650Z,102021.34
2018-02-18T21:34:11.771Z,102022.41
2018-02-18T21:36:39.907Z,102021.43
2018-02-18T21:39:08.045Z,102020.09
2018-02-18T21:41:36.231Z,102015.00
2018-02-18T21:44:04.431Z,102017.19
2018-02-18T21:46:32.564Z,102015.86
2018-02-18T21:49:01.030Z,102019.58
2018-02-18T21:51:29.326Z,102023.80
2018-02-18T21:53:58.355Z,102022.58
2018-02-18T21:56:26.493Z,102024.23
2018-02-18T21:58:54.614Z,102024.70
2018-02-18T22:01:22.756Z,102025.88
2018-02-18T22:03:50.873Z,102021.40
2018-02-18T22:06:19.010Z,102029.55
2018-02-18T22:08:47.136Z,102021.30
2018-02-18T22:11:15.259Z,102020.98
2018-02-18T22:13:43.363Z,102019.19
2018-02-18T22:16:15.323Z,102020.71
2018-02-18T22:18:43.416Z,102022.20
2018-02-18T22:21:11.534Z,102026.55
2018-02-18T22:23:39.644Z,102019.99
2018-02-18T22:26:07.767Z,102028.05
2018-02-18T22:28:35.907Z,102023.41
2018-02-18T22:31:04.021Z,102017.44
2018-02-18T22:33:32.142Z,102016.53
2018-02-18T22:36:00.272Z,102022.17
2018-02-18T22:38:28.396Z,102018.41
2018-02-18T22:40:56.509Z,102024.26
2018-02-18T22:43:24.627Z,102020.27
2018-02-18T22:45:52.797Z,102018.98
2018-02-18T22:48:21.179Z,102018.11
2018-02-18T22:50:49.284Z,102013.92
2018-02-18T22:53:17.469Z,102015.83
2018-02-18T22:55:45.590Z,102017.79
2018-02-18T22:58:13.718Z,102019.80
2018-02-18T23:00:41.849Z,102012.46
2018-02-18T23:03:09.979Z,102010.69
2018-02-18T23:05:43.611Z,102009.60
2018-02-18T23:08:11.749Z,102015.05
2018-02-18T23:10:39.868Z,102007.92
2018-02-18T23:13:08.336Z,102010.64
2018-02-18T23:15:36.460Z,102010.38
2018-02-18T23:18:07.704Z,102005.31
2018-02-18T23:20:47.459Z,102008.92
2018-02-18T23:23:15.635Z,102001.25
2018-02-18T23:25:43.757Z,101999.56
2018-02-18T23:28:11.892Z,101998.73
2018-02-18T23:30:40.022Z,101996.94
2018-02-18T23:33:08.145Z,102003.24
2018-02-18T23:35:36.264Z,102005.56
2018-02-18T23:38:04.390Z,101999.70
2018-02-18T23:40:32.523Z,102001.86
2018-02-18T23:43:00.649Z,101994.80
2018-02-18T23:45:28.790Z,101990.63
2018-02-18T23:47:56.978Z,101995.02
2018-02-18T23:50:25.098Z,101991.20
2018-02-18T23:52:53.357Z,101992.83
2018-02-18T23:55:21.449Z,101988.98
2018-02-18T23:57:49.560Z,101982.14
